createdAt,value
2022-11-29T00:01:08.072Z,78.54
2022-11-29T00:04:15.942Z,78.60
2022-11-29T00:07:19.270Z,78.51
2022-11-29T00:10:22.234Z,78.51
2022-11-29T00:13:25.071Z,78.59
2022-11-29T00:16:32.667Z,78.37
2022-11-29T00:19:47.236Z,78.40
2022-11-29T00:22:53.834Z,78.41
2022-11-29T00:26:07.352Z,78.50
2022-11-29T00:29:13.615Z,78.40
2022-11-29T00:32:31.537Z,78.39
2022-11-29T00:35:37.409Z,78.39
2022-11-29T00:38:41.728Z,78.39
2022-11-29T00:41:46.486Z,78.46
2022-11-29T00:44:49.316Z,78.49
2022-11-29T00:47:52.126Z,78.44
2022-11-29T00:50:54.992Z,78.45
2022-11-29T00:53:57.771Z,78.49
2022-11-29T00:57:01.832Z,78.59
2022-11-29T01:00:05.357Z,78.39
2022-11-29T01:03:08.280Z,78.37
2022-11-29T01:06:15.125Z,78.54
2022-11-29T01:09:21.779Z,78.54
2022-11-29T01:12:24.672Z,78.55
2022-11-29T01:15:28.583Z,78.52
2022-11-29T01:18:32.496Z,78.55
2022-11-29T01:21:35.594Z,78.59
2022-11-29T01:24:38.388Z,78.59
2022-11-29T01:27:41.685Z,78.53
2022-11-29T01:30:46.801Z,78.52
2022-11-29T01:33:53.542Z,78.56
2022-11-29T01:36:58.425Z,78.51
2022-11-29T01:40:01.710Z,78.54
2022-11-29T01:43:13.719Z,78.37
2022-11-29T01:46:17.683Z,78.34
2022-11-29T01:49:38.748Z,78.50
2022-11-29T01:52:42.058Z,78.42
2022-11-29T01:55:51.053Z,78.35
2022-11-29T01:58:54.746Z,78.45
2022-11-29T02:02:04.895Z,78.22
2022-11-29T02:05:08.882Z,78.44
2022-11-29T02:08:14.816Z,78.29
2022-11-29T02:11:20.934Z,78.38
2022-11-29T02:14:50.047Z,78.38
2022-11-29T02:18:02.699Z,78.38
2022-11-29T02:21:50.060Z,78.24
2022-11-29T02:25:25.425Z,78.21
2022-11-29T02:28:41.457Z,78.26
2022-11-29T02:32:21.995Z,78.31
2022-11-29T02:35:24.828Z,78.24
2022-11-29T02:39:08.311Z,78.30
2022-11-29T02:42:33.179Z,78.24
2022-11-29T02:46:07.572Z,78.20
2022-11-29T02:49:22.588Z,78.21
2022-11-29T02:52:39.629Z,78.24
2022-11-29T02:56:03.589Z,78.13
2022-11-29T02:59:34.955Z,78.19
2022-11-29T03:02:50.178Z,78.23
2022-11-29T03:06:11.065Z,78.18
2022-11-29T03:09:23.979Z,78.27
2022-11-29T03:12:55.870Z,78.34
2022-11-29T03:16:11.721Z,78.30
2022-11-29T03:19:42.880Z,78.34
2022-11-29T03:22:57.912Z,78.28
2022-11-29T03:26:11.692Z,78.23
2022-11-29T03:29:23.594Z,78.29
2022-11-29T03:32:42.670Z,78.28
2022-11-29T03:36:00.849Z,78.20
2022-11-29T03:39:07.616Z,78.24
2022-11-29T03:42:26.541Z,78.25
2022-11-29T03:45:53.763Z,78.20
2022-11-29T03:49:13.571Z,78.18
2022-11-29T03:52:38.502Z,78.36
2022-11-29T03:56:03.716Z,78.40
2022-11-29T03:59:37.820Z,78.31
2022-11-29T04:02:58.849Z,78.33
2022-11-29T04:06:45.258Z,78.35
2022-11-29T04:09:54.171Z,78.34
2022-11-29T04:13:19.420Z,78.26
2022-11-29T04:17:01.029Z,78.30
2022-11-29T04:20:22.662Z,78.30
2022-11-29T04:23:47.397Z,78.35
2022-11-29T04:27:27.472Z,78.13
2022-11-29T04:30:48.063Z,78.27
2022-11-29T04:34:15.494Z,78.17
2022-11-29T04:37:43.681Z,78.28
2022-11-29T04:41:17.877Z,78.26
2022-11-29T04:44:42.738Z,78.29
2022-11-29T04:48:11.843Z,78.38
2022-11-29T04:51:39.201Z,78.38
2022-11-29T04:54:45.226Z,78.37
2022-11-29T04:57:56.283Z,78.31
2022-11-29T05:01:23.446Z,78.38
2022-11-29T05:05:12.258Z,78.51
2022-11-29T05:08:27.738Z,78.35
2022-11-29T05:11:54.480Z,78.43
2022-11-29T05:15:00.259Z,78.26
2022-11-29T05:18:46.285Z,78.43
2022-11-29T05:22:23.531Z,78.51
2022-11-29T05:26:00.410Z,78.44
2022-11-29T05:29:10.158Z,78.32
2022-11-29T05:32:50.781Z,78.43
2022-11-29T05:36:01.115Z,78.47
2022-11-29T05:39:21.743Z,78.46
2022-11-29T05:42:57.788Z,78.46
2022-11-29T05:46:09.414Z,78.37
2022-11-29T05:49:50.167Z,78.47
2022-11-29T05:53:00.266Z,78.45
2022-11-29T05:56:25.448Z,78.40
2022-11-29T05:59:30.219Z,78.41
2022-11-29T06:03:03.776Z,78.49
2022-11-29T06:06:19.606Z,78.34
2022-11-29T06:09:59.167Z,78.47
2022-11-29T06:13:19.021Z,78.37
2022-11-29T06:16:34.215Z,78.33
2022-11-29T06:19:53.256Z,78.41
2022-11-29T06:23:04.871Z,78.52
2022-11-29T06:26:29.342Z,78.48
2022-11-29T06:30:00.445Z,78.40
2022-11-29T06:33:28.679Z,78.36
2022-11-29T06:36:55.942Z,78.30
2022-11-29T06:39:59.035Z,78.31
2022-11-29T06:43:02.234Z,78.38
2022-11-29T06:46:24.845Z,78.44
2022-11-29T06:49:49.544Z,78.48
2022-11-29T06:53:00.624Z,78.38
2022-11-29T06:56:19.758Z,78.38
2022-11-29T06:59:45.638Z,78.28
2022-11-29T07:03:30.251Z,78.32
2022-11-29T07:06:35.113Z,78.44
2022-11-29T07:09:38.224Z,78.52
2022-11-29T07:12:41.333Z,78.46
2022-11-29T07:16:12.364Z,78.41
2022-11-29T07:19:34.347Z,78.41
2022-11-29T07:22:49.319Z,78.34
2022-11-29T07:26:06.975Z,78.40
2022-11-29T07:29:28.267Z,78.43
2022-11-29T07:32:34.541Z,78.57
2022-11-29T07:35:46.866Z,78.57
2022-11-29T07:39:11.307Z,78.77
2022-11-29T07:42:23.321Z,78.56
2022-11-29T07:45:30.012Z,78.53
2022-11-29T07:48:32.863Z,78.61
2022-11-29T07:51:35.886Z,78.45
2022-11-29T07:54:39.010Z,78.35
2022-11-29T07:57:41.965Z,78.44
2022-11-29T08:00:45.671Z,78.41
2022-11-29T08:03:48.605Z,78.40
2022-11-29T08:06:51.541Z,78.32
2022-11-29T08:09:54.367Z,78.31
2022-11-29T08:12:57.323Z,78.24
2022-11-29T08:16:00.226Z,78.37
2022-11-29T08:19:03.801Z,78.44
2022-11-29T08:22:06.577Z,78.32
2022-11-29T08:25:10.370Z,78.43
2022-11-29T08:28:13.191Z,78.33
2022-11-29T08:31:16.068Z,78.18
2022-11-29T08:34:20.229Z,78.22
2022-11-29T08:37:23.185Z,78.11
2022-11-29T08:40:25.994Z,78.05
2022-11-29T08:43:30.236Z,77.97
2022-11-29T08:46:51.730Z,78.07
2022-11-29T08:50:03.820Z,77.99
2022-11-29T08:53:25.824Z,77.97
2022-11-29T08:57:16.648Z,77.82
2022-11-29T08:59:53.387Z,77.77
2022-11-29T09:02:56.236Z,77.92
2022-11-29T09:05:59.860Z,78.01
2022-11-29T09:09:03.681Z,77.94
2022-11-29T09:12:08.703Z,77.97
2022-11-29T09:15:12.755Z,77.84
2022-11-29T09:18:15.565Z,77.76
2022-11-29T09:21:19.090Z,77.48
2022-11-29T09:24:21.951Z,77.52
2022-11-29T09:27:24.809Z,77.61
2022-11-29T09:30:30.714Z,77.72
2022-11-29T09:33:34.498Z,77.67
2022-11-29T09:36:37.308Z,77.63
2022-11-29T09:39:41.625Z,77.70
2022-11-29T09:43:11.216Z,77.76
2022-11-29T09:46:30.431Z,77.66
2022-11-29T09:49:42.844Z,77.57
2022-11-29T09:53:00.934Z,77.39
2022-11-29T09:56:27.060Z,77.37
2022-11-29T09:59:35.944Z,77.36
2022-11-29T10:02:47.740Z,77.40
2022-11-29T10:05:57.743Z,77.38
2022-11-29T10:09:12.447Z,77.42
2022-11-29T10:12:18.435Z,77.38
2022-11-29T10:15:25.962Z,77.38
2022-11-29T10:18:44.444Z,77.60
2022-11-29T10:22:00.928Z,77.31
2022-11-29T10:25:09.642Z,77.35
2022-11-29T10:28:26.113Z,77.18
2022-11-29T10:31:35.134Z,77.16
2022-11-29T10:34:38.813Z,77.20
2022-11-29T10:37:45.872Z,77.12
2022-11-29T10:41:07.239Z,76.92
2022-11-29T10:44:14.680Z,76.84
2022-11-29T10:47:17.525Z,77.15
2022-11-29T10:50:27.375Z,76.65
2022-11-29T10:53:37.449Z,76.64
2022-11-29T10:56:42.254Z,76.85
2022-11-29T11:00:17.752Z,76.72
2022-11-29T11:03:53.388Z,76.73
2022-11-29T11:07:01.342Z,76.61
2022-11-29T11:10:37.245Z,76.36
2022-11-29T11:13:41.259Z,76.45
2022-11-29T11:16:44.264Z,76.05
2022-11-29T11:20:08.509Z,76.11
2022-11-29T11:23:27.233Z,76.09
2022-11-29T11:26:43.170Z,76.00
2022-11-29T11:29:46.152Z,76.01
2022-11-29T11:33:08.155Z,76.14
2022-11-29T11:36:14.264Z,76.09
2022-11-29T11:39:22.950Z,75.94
2022-11-29T11:42:39.061Z,75.67
2022-11-29T11:45:42.177Z,75.50
2022-11-29T11:48:45.189Z,75.28
2022-11-29T11:51:48.047Z,75.28
2022-11-29T11:54:55.037Z,75.43
2022-11-29T11:58:09.724Z,75.52
2022-11-29T12:01:13.414Z,75.59
2022-11-29T12:04:27.776Z,75.50
2022-11-29T12:08:07.409Z,75.46
2022-11-29T12:11:14.607Z,75.25
2022-11-29T12:14:56.873Z,75.31
2022-11-29T12:18:10.159Z,75.27
2022-11-29T12:21:19.578Z,74.80
2022-11-29T12:24:35.700Z,74.29
2022-11-29T12:27:38.626Z,74.79
2022-11-29T12:30:47.540Z,74.78
2022-11-29T12:34:10.162Z,74.65
2022-11-29T12:37:25.258Z,74.16
2022-11-29T12:40:58.636Z,74.35
2022-11-29T12:44:15.243Z,74.55
2022-11-29T12:47:37.410Z,74.68
2022-11-29T12:51:08.302Z,74.75
2022-11-29T12:54:38.848Z,74.34
2022-11-29T12:57:47.836Z,74.27
2022-11-29T13:01:04.198Z,74.31
2022-11-29T13:04:27.429Z,74.19
2022-11-29T13:08:16.866Z,74.35
2022-11-29T13:11:36.761Z,74.44
2022-11-29T13:15:07.045Z,74.55
2022-11-29T13:18:24.192Z,74.45
2022-11-29T13:21:48.873Z,74.51
2022-11-29T13:24:51.632Z,74.64
2022-11-29T13:27:59.030Z,74.68
2022-11-29T13:31:06.605Z,74.68
2022-11-29T13:34:29.349Z,74.58
2022-11-29T13:37:53.541Z,74.65
2022-11-29T13:41:01.827Z,74.41
2022-11-29T13:44:11.532Z,74.53
2022-11-29T13:47:19.018Z,74.61
2022-11-29T13:50:41.827Z,74.21
2022-11-29T13:53:48.762Z,73.88
2022-11-29T13:57:05.569Z,74.30
2022-11-29T14:00:39.765Z,74.53
2022-11-29T14:03:45.437Z,74.30
2022-11-29T14:06:49.854Z,74.10
2022-11-29T14:10:03.438Z,74.18
2022-11-29T14:13:14.689Z,74.23
2022-11-29T14:16:36.498Z,74.26
2022-11-29T14:19:39.549Z,74.20
2022-11-29T14:23:05.146Z,74.20
2022-11-29T14:26:07.961Z,74.04
2022-11-29T14:29:48.740Z,74.34
2022-11-29T14:33:04.372Z,74.59
2022-11-29T14:36:18.917Z,74.52
2022-11-29T14:39:42.347Z,74.52
2022-11-29T14:42:49.223Z,74.53
2022-11-29T14:46:16.721Z,74.51
2022-11-29T14:49:26.315Z,74.62
2022-11-29T14:52:40.847Z,74.55
2022-11-29T14:55:43.735Z,74.60
2022-11-29T14:58:48.026Z,74.61
2022-11-29T15:01:51.037Z,74.75
2022-11-29T15:04:56.935Z,74.77
2022-11-29T15:08:17.204Z,74.76
2022-11-29T15:11:32.350Z,74.79
2022-11-29T15:15:04.566Z,74.92
2022-11-29T15:18:20.447Z,75.02
2022-11-29T15:22:28.511Z,74.99
2022-11-29T15:25:33.137Z,75.04
2022-11-29T15:28:36.023Z,75.27
2022-11-29T15:31:42.355Z,75.19
2022-11-29T15:34:50.536Z,75.16
2022-11-29T15:37:54.414Z,75.22
2022-11-29T15:40:58.575Z,75.29
2022-11-29T15:44:07.211Z,75.40
2022-11-29T15:47:24.439Z,75.35
2022-11-29T15:50:32.548Z,75.30
2022-11-29T15:53:44.250Z,75.24
2022-11-29T15:56:52.135Z,75.40
2022-11-29T15:59:59.303Z,75.40
2022-11-29T16:03:04.628Z,75.31
2022-11-29T16:06:27.637Z,75.41
2022-11-29T16:09:41.033Z,75.36
2022-11-29T16:13:25.630Z,75.50
2022-11-29T16:16:32.578Z,75.40
2022-11-29T16:19:38.011Z,75.40
2022-11-29T16:22:40.898Z,75.32
2022-11-29T16:25:55.482Z,75.41
2022-11-29T16:28:58.376Z,75.39
2022-11-29T16:32:14.259Z,75.52
2022-11-29T16:35:26.727Z,75.25
2022-11-29T16:38:29.721Z,75.25
2022-11-29T16:41:33.725Z,75.16
2022-11-29T16:44:46.901Z,75.34
2022-11-29T16:47:53.225Z,75.22
2022-11-29T16:51:08.164Z,75.21
2022-11-29T16:54:31.875Z,75.30
2022-11-29T16:57:35.095Z,75.26
2022-11-29T17:00:45.602Z,75.14
2022-11-29T17:03:50.911Z,75.12
2022-11-29T17:06:57.650Z,75.13
2022-11-29T17:10:01.468Z,75.17
2022-11-29T17:13:04.731Z,75.19
2022-11-29T17:16:12.970Z,75.31
2022-11-29T17:19:16.445Z,75.31
2022-11-29T17:22:19.304Z,75.17
2022-11-29T17:25:25.993Z,75.07
2022-11-29T17:28:31.708Z,75.36
2022-11-29T17:31:34.976Z,75.38
2022-11-29T17:34:37.888Z,75.33
2022-11-29T17:37:40.901Z,75.39
2022-11-29T17:40:46.970Z,75.33
2022-11-29T17:43:51.074Z,75.44
2022-11-29T17:46:53.967Z,75.43
2022-11-29T17:49:58.215Z,75.32
2022-11-29T17:53:01.068Z,75.25
2022-11-29T17:56:12.897Z,75.07
2022-11-29T17:59:15.887Z,75.26
2022-11-29T18:02:18.785Z,75.21
2022-11-29T18:05:34.725Z,75.14
2022-11-29T18:09:09.695Z,75.19
2022-11-29T18:43:13.031Z,75.34
2022-11-29T18:46:32.187Z,75.52
2022-11-29T18:48:30.591Z,75.27
2022-11-29T18:51:44.979Z,75.11
2022-11-29T18:58:06.204Z,75.36
2022-11-29T18:58:21.336Z,75.33
2022-11-29T19:01:46.773Z,75.17
2022-11-29T19:04:51.710Z,75.22
2022-11-29T19:08:16.423Z,75.15
2022-11-29T19:18:42.953Z,75.10
2022-11-29T19:19:19.728Z,75.18
2022-11-29T19:19:48.917Z,75.15
2022-11-29T19:26:28.386Z,75.05
2022-11-29T19:27:07.189Z,74.99
2022-11-29T19:31:26.415Z,75.22
2022-11-29T19:34:24.353Z,75.19
2022-11-29T19:38:22.469Z,75.20
2022-11-29T19:40:53.870Z,75.19
2022-11-29T19:44:04.656Z,75.15
2022-11-29T20:05:44.094Z,75.17
2022-11-29T20:26:24.242Z,75.26
2022-11-29T20:29:29.893Z,75.29
2022-11-29T20:32:31.705Z,75.07
2022-11-29T20:35:45.668Z,75.09
2022-11-29T20:39:25.738Z,75.18
2022-11-29T20:43:20.588Z,75.18
2022-11-29T20:46:28.184Z,75.16
2022-11-29T20:49:32.757Z,75.17
2022-11-29T20:53:33.629Z,75.01
2022-11-29T20:56:59.655Z,74.91
2022-11-29T21:00:09.760Z,74.97
2022-11-29T21:03:19.452Z,74.92
2022-11-29T21:10:52.892Z,74.96
2022-11-29T21:16:32.085Z,75.02
2022-11-29T21:18:29.813Z,75.01
2022-11-29T21:21:49.372Z,75.11
2022-11-29T21:25:09.946Z,74.95
2022-11-29T21:28:13.784Z,74.90
2022-11-29T21:31:17.750Z,74.95
2022-11-29T21:34:20.640Z,75.01
2022-11-29T21:37:27.053Z,75.05
2022-11-29T21:40:32.190Z,75.08
2022-11-29T21:44:04.340Z,75.08
2022-11-29T21:47:02.102Z,75.05
2022-11-29T21:50:48.964Z,74.94
2022-11-29T21:53:50.845Z,75.10
2022-11-29T21:56:52.601Z,75.14
2022-11-29T21:59:54.182Z,74.99
2022-11-29T22:02:58.397Z,75.06
2022-11-29T22:06:04.699Z,75.12
2022-11-29T22:09:07.171Z,75.03
2022-11-29T22:12:37.244Z,75.04
2022-11-29T22:15:39.232Z,74.94
2022-11-29T22:18:51.953Z,75.04
2022-11-29T22:22:06.842Z,74.98
2022-11-29T22:25:14.305Z,75.10
2022-11-29T22:28:15.861Z,74.96
2022-11-29T22:31:17.373Z,75.13
2022-11-29T22:34:19.689Z,75.24
2022-11-29T22:37:22.767Z,75.35
2022-11-29T22:40:24.834Z,75.17
2022-11-29T22:43:31.621Z,75.15
2022-11-29T22:46:34.972Z,75.32
2022-11-29T22:49:36.406Z,75.26
2022-11-29T22:52:37.833Z,75.16
2022-11-29T22:55:39.264Z,75.32
2022-11-29T22:58:42.770Z,75.36
2022-11-29T23:01:44.474Z,75.40
2022-11-29T23:04:46.296Z,75.42
2022-11-29T23:07:52.045Z,75.37
2022-11-29T23:10:58.995Z,75.38
2022-11-29T23:14:00.679Z,75.35
2022-11-29T23:17:02.446Z,75.53
2022-11-29T23:20:05.903Z,75.54
2022-11-29T23:23:07.676Z,75.45
2022-11-29T23:26:20.073Z,75.54
2022-11-29T23:29:22.429Z,75.45
2022-11-29T23:32:24.476Z,75.54
2022-11-29T23:35:30.004Z,75.58
2022-11-29T23:38:32.922Z,75.66
2022-11-29T23:41:38.770Z,75.61
2022-11-29T23:44:41.522Z,75.57
2022-11-29T23:47:44.520Z,75.70
2022-11-29T23:50:52.756Z,75.69
2022-11-29T23:54:30.713Z,75.70
2022-11-29T23:58:02.795Z,75.86
